sensor_id;sensor_type;location;lat;lon;timestamp;temperature;humidity
6863;DHT22;3470;48.738;9.616;2023-05-10T16:58:13;15.20;99.90
6863;DHT22;3470;48.738;9.616;2023-05-10T17:00:39;15.10;99.90
6863;DHT22;3470;48.738;9.616;2023-05-10T17:03:04;15.00;99.90
6863;DHT22;3470;48.738;9.616;2023-05-10T17:05:30;15.00;99.90
6863;DHT22;3470;48.738;9.616;2023-05-10T17:07:56;15.00;99.90
6863;DHT22;3470;48.738;9.616;2023-05-10T17:10:21;15.00;99.90
6863;DHT22;3470;48.738;9.616;2023-05-10T17:12:47;15.00;99.90
6863;DHT22;3470;48.738;9.616;2023-05-10T17:15:16;15.00;99.90
6863;DHT22;3470;48.738;9.616;2023-05-10T17:17:43;15.00;99.90
6863;DHT22;3470;48.738;9.616;2023-05-10T17:20:09;14.90;99.90
6863;DHT22;3470;48.738;9.616;2023-05-10T17:22:35;14.90;99.90
6863;DHT22;3470;48.738;9.616;2023-05-10T17:25:00;14.90;99.90
6863;DHT22;3470;48.738;9.616;2023-05-10T17:27:26;14.80;99.90
6863;DHT22;3470;48.738;9.616;2023-05-10T17:29:56;14.80;99.90
6863;DHT22;3470;48.738;9.616;2023-05-10T17:32:22;14.70;99.90
6863;DHT22;3470;48.738;9.616;2023-05-10T17:34:48;14.60;99.90
6863;DHT22;3470;48.738;9.616;2023-05-10T17:37:13;14.50;99.90
6863;DHT22;3470;48.738;9.616;2023-05-10T17:39:39;14.50;99.90
6863;DHT22;3470;48.738;9.616;2023-05-10T17:42:04;14.50;99.90
6863;DHT22;3470;48.738;9.616;2023-05-10T17:44:30;14.40;99.90
6863;DHT22;3470;48.738;9.616;2023-05-10T17:46:56;14.30;99.90
6863;DHT22;3470;48.738;9.616;2023-05-10T17:49:21;14.30;99.90
6863;DHT22;3470;48.738;9.616;2023-05-10T17:51:47;14.20;99.90
6863;DHT22;3470;48.738;9.616;2023-05-10T17:54:13;14.10;99.90
6863;DHT22;3470;48.738;9.616;2023-05-10T17:56:39;14.10;99.90
6863;DHT22;3470;48.738;9.616;2023-05-10T17:59:05;14.00;99.90
6863;DHT22;3470;48.738;9.616;2023-05-10T18:01:30;13.90;99.90
6863;DHT22;3470;48.738;9.616;2023-05-10T18:03:56;13.90;99.90
6863;DHT22;3470;48.738;9.616;2023-05-10T18:06:22;14.00;99.90
6863;DHT22;3470;48.738;9.616;2023-05-10T18:08:47;13.90;99.90
6863;DHT22;3470;48.738;9.616;2023-05-10T18:11:13;13.90;99.90
6863;DHT22;3470;48.738;9.616;2023-05-10T18:13:39;13.90;99.90
6863;DHT22;3470;48.738;9.616;2023-05-10T18:16:05;13.70;99.90
6863;DHT22;3470;48.738;9.616;2023-05-10T18:18:33;13.70;99.90
6863;DHT22;3470;48.738;9.616;2023-05-10T18:20:59;13.60;99.90
6863;DHT22;3470;48.738;9.616;2023-05-10T18:23:25;13.50;99.90
6863;DHT22;3470;48.738;9.616;2023-05-10T18:25:51;13.40;99.90
6863;DHT22;3470;48.738;9.616;2023-05-10T18:28:17;13.40;99.90
6863;DHT22;3470;48.738;9.616;2023-05-10T18:30:42;13.40;99.90
6863;DHT22;3470;48.738;9.616;2023-05-10T18:33:08;13.30;99.90
6863;DHT22;3470;48.738;9.616;2023-05-10T18:35:37;13.30;99.90
6863;DHT22;3470;48.738;9.616;2023-05-10T18:38:03;13.20;99.90
6863;DHT22;3470;48.738;9.616;2023-05-10T18:40:28;13.20;99.90
6863;DHT22;3470;48.738;9.616;2023-05-10T18:42:54;13.20;99.90
6863;DHT22;3470;48.738;9.616;2023-05-10T18:45:19;13.20;99.90
6863;DHT22;3470;48.738;9.616;2023-05-10T18:47:45;13.20;99.90
6863;DHT22;3470;48.738;9.616;2023-05-10T18:50:11;13.20;99.90
6863;DHT22;3470;48.738;9.616;2023-05-10T18:52:37;13.20;99.90
6863;DHT22;3470;48.738;9.616;2023-05-10T18:55:03;13.20;99.90
6863;DHT22;3470;48.738;9.616;2023-05-10T18:57:28;13.20;99.90
6863;DHT22;3470;48.738;9.616;2023-05-10T18:59:54;13.20;99.90
6863;DHT22;3470;48.738;9.616;2023-05-10T19:02:20;13.00;99.90
6863;DHT22;3470;48.738;9.616;2023-05-10T19:04:45;12.90;99.90
6863;DHT22;3470;48.738;9.616;2023-05-10T19:07:11;12.80;99.90
6863;DHT22;3470;48.738;9.616;2023-05-10T19:09:36;12.70;99.90
6863;DHT22;3470;48.738;9.616;2023-05-10T19:12:02;12.70;99.90
6863;DHT22;3470;48.738;9.616;2023-05-10T19:14:28;12.60;99.90
6863;DHT22;3470;48.738;9.616;2023-05-10T19:16:53;12.50;99.90
6863;DHT22;3470;48.738;9.616;2023-05-10T19:19:19;12.50;99.90
6863;DHT22;3470;48.738;9.616;2023-05-10T19:21:45;12.40;99.90
6863;DHT22;3470;48.738;9.616;2023-05-10T19:24:11;12.30;99.90
6863;DHT22;3470;48.738;9.616;2023-05-10T19:26:36;12.30;99.90
6863;DHT22;3470;48.738;9.616;2023-05-10T19:29:02;12.20;99.90
6863;DHT22;3470;48.738;9.616;2023-05-10T19:31:27;12.10;99.90
6863;DHT22;3470;48.738;9.616;2023-05-10T19:33:53;12.10;99.90
6863;DHT22;3470;48.738;9.616;2023-05-10T19:36:19;12.00;99.90
6863;DHT22;3470;48.738;9.616;2023-05-10T19:38:45;12.00;99.90
6863;DHT22;3470;48.738;9.616;2023-05-10T19:41:10;12.00;99.90
6863;DHT22;3470;48.738;9.616;2023-05-10T19:43:37;12.00;99.90
6863;DHT22;3470;48.738;9.616;2023-05-10T19:46:04;11.90;99.90
6863;DHT22;3470;48.738;9.616;2023-05-10T19:48:29;11.90;99.90
6863;DHT22;3470;48.738;9.616;2023-05-10T19:51:03;11.80;99.90
6863;DHT22;3470;48.738;9.616;2023-05-10T19:53:29;11.80;99.90
6863;DHT22;3470;48.738;9.616;2023-05-10T19:55:55;11.80;99.90
6863;DHT22;3470;48.738;9.616;2023-05-10T19:58:21;11.80;99.90
6863;DHT22;3470;48.738;9.616;2023-05-10T20:00:46;11.90;99.90
6863;DHT22;3470;48.738;9.616;2023-05-10T20:03:12;11.90;99.90
6863;DHT22;3470;48.738;9.616;2023-05-10T20:05:37;11.80;99.90
6863;DHT22;3470;48.738;9.616;2023-05-10T20:08:06;11.70;99.90
6863;DHT22;3470;48.738;9.616;2023-05-10T20:10:32;11.70;99.90
6863;DHT22;3470;48.738;9.616;2023-05-10T20:12:57;11.60;99.90
6863;DHT22;3470;48.738;9.616;2023-05-10T20:15:24;11.70;99.90
6863;DHT22;3470;48.738;9.616;2023-05-10T20:17:50;11.70;99.90
6863;DHT22;3470;48.738;9.616;2023-05-10T20:20:17;11.70;99.90
6863;DHT22;3470;48.738;9.616;2023-05-10T20:22:44;11.70;99.90
6863;DHT22;3470;48.738;9.616;2023-05-10T20:25:10;11.70;99.90
6863;DHT22;3470;48.738;9.616;2023-05-10T20:27:36;11.60;99.90
6863;DHT22;3470;48.738;9.616;2023-05-10T20:30:02;11.60;99.90
6863;DHT22;3470;48.738;9.616;2023-05-10T20:32:27;11.50;99.90
6863;DHT22;3470;48.738;9.616;2023-05-10T20:34:53;11.50;99.90
6863;DHT22;3470;48.738;9.616;2023-05-10T20:37:19;11.50;99.90
6863;DHT22;3470;48.738;9.616;2023-05-10T20:39:44;11.40;99.90
6863;DHT22;3470;48.738;9.616;2023-05-10T20:42:10;11.30;99.90
6863;DHT22;3470;48.738;9.616;2023-05-10T20:44:35;11.30;99.90
6863;DHT22;3470;48.738;9.616;2023-05-10T20:47:01;11.20;99.90
6863;DHT22;3470;48.738;9.616;2023-05-10T20:49:27;11.20;99.90
6863;DHT22;3470;48.738;9.616;2023-05-10T20:51:54;11.10;99.90
6863;DHT22;3470;48.738;9.616;2023-05-10T20:54:21;11.10;99.90
6863;DHT22;3470;48.738;9.616;2023-05-10T20:56:47;11.10;99.90
6863;DHT22;3470;48.738;9.616;2023-05-10T20:59:13;11.10;99.90
6863;DHT22;3470;48.738;9.616;2023-05-10T21:01:38;11.10;99.90
6863;DHT22;3470;48.738;9.616;2023-05-10T21:04:04;11.00;99.90
6863;DHT22;3470;48.738;9.616;2023-05-10T21:06:30;11.00;99.90
6863;DHT22;3470;48.738;9.616;2023-05-10T21:08:58;11.00;99.90
6863;DHT22;3470;48.738;9.616;2023-05-10T21:11:24;11.00;99.90
6863;DHT22;3470;48.738;9.616;2023-05-10T21:13:50;11.00;99.90
6863;DHT22;3470;48.738;9.616;2023-05-10T21:16:15;11.00;99.90
6863;DHT22;3470;48.738;9.616;2023-05-10T21:18:41;10.90;99.90
6863;DHT22;3470;48.738;9.616;2023-05-10T21:21:06;11.00;99.90
6863;DHT22;3470;48.738;9.616;2023-05-10T21:23:32;10.90;99.90
6863;DHT22;3470;48.738;9.616;2023-05-10T21:25:57;10.90;99.90
6863;DHT22;3470;48.738;9.616;2023-05-10T21:28:23;11.00;99.90
6863;DHT22;3470;48.738;9.616;2023-05-10T21:30:49;10.90;99.90
6863;DHT22;3470;48.738;9.616;2023-05-10T21:33:15;10.90;99.90
6863;DHT22;3470;48.738;9.616;2023-05-10T21:35:44;11.00;99.90
6863;DHT22;3470;48.738;9.616;2023-05-10T21:38:09;11.00;99.90
6863;DHT22;3470;48.738;9.616;2023-05-10T21:40:37;11.00;99.90
6863;DHT22;3470;48.738;9.616;2023-05-10T21:43:03;10.90;99.90
6863;DHT22;3470;48.738;9.616;2023-05-10T21:45:28;10.90;99.90
6863;DHT22;3470;48.738;9.616;2023-05-10T21:47:57;11.00;99.90
6863;DHT22;3470;48.738;9.616;2023-05-10T21:50:23;11.00;99.90
6863;DHT22;3470;48.738;9.616;2023-05-10T21:52:48;11.10;99.90
6863;DHT22;3470;48.738;9.616;2023-05-10T21:55:14;11.10;99.90
6863;DHT22;3470;48.738;9.616;2023-05-10T21:57:40;11.10;99.90
6863;DHT22;3470;48.738;9.616;2023-05-10T22:00:08;11.10;99.90
6863;DHT22;3470;48.738;9.616;2023-05-10T22:02:34;11.10;99.90
6863;DHT22;3470;48.738;9.616;2023-05-10T22:05:01;11.10;99.90
6863;DHT22;3470;48.738;9.616;2023-05-10T22:07:30;11.10;99.90
6863;DHT22;3470;48.738;9.616;2023-05-10T22:09:55;11.00;99.90
6863;DHT22;3470;48.738;9.616;2023-05-10T22:12:21;11.00;99.90
6863;DHT22;3470;48.738;9.616;2023-05-10T22:14:47;10.90;99.90
6863;DHT22;3470;48.738;9.616;2023-05-10T22:17:12;10.90;99.90
6863;DHT22;3470;48.738;9.616;2023-05-10T22:19:38;10.90;99.90
6863;DHT22;3470;48.738;9.616;2023-05-10T22:22:04;10.90;99.90
6863;DHT22;3470;48.738;9.616;2023-05-10T22:24:29;10.90;99.90
6863;DHT22;3470;48.738;9.616;2023-05-10T22:26:55;10.90;99.90
6863;DHT22;3470;48.738;9.616;2023-05-10T22:29:21;10.90;99.90
6863;DHT22;3470;48.738;9.616;2023-05-10T22:31:47;10.90;99.90
6863;DHT22;3470;48.738;9.616;2023-05-10T22:34:13;10.90;99.90
6863;DHT22;3470;48.738;9.616;2023-05-10T22:36:39;10.90;99.90
6863;DHT22;3470;48.738;9.616;2023-05-10T22:39:04;10.90;99.90
6863;DHT22;3470;48.738;9.616;2023-05-10T22:41:31;10.80;99.90
6863;DHT22;3470;48.738;9.616;2023-05-10T22:43:57;10.80;99.90
6863;DHT22;3470;48.738;9.616;2023-05-10T22:46:22;10.80;99.90
6863;DHT22;3470;48.738;9.616;2023-05-10T22:48:48;10.80;99.90
6863;DHT22;3470;48.738;9.616;2023-05-10T22:51:13;10.80;99.90
6863;DHT22;3470;48.738;9.616;2023-05-10T22:53:39;10.80;99.90
6863;DHT22;3470;48.738;9.616;2023-05-10T22:56:05;10.80;99.90
6863;DHT22;3470;48.738;9.616;2023-05-10T22:58:31;10.80;99.90
6863;DHT22;3470;48.738;9.616;2023-05-10T23:00:57;10.70;99.90
6863;DHT22;3470;48.738;9.616;2023-05-10T23:03:23;10.70;99.90
6863;DHT22;3470;48.738;9.616;2023-05-10T23:05:49;10.70;99.90
6863;DHT22;3470;48.738;9.616;2023-05-10T23:08:14;10.70;99.90
6863;DHT22;3470;48.738;9.616;2023-05-10T23:10:40;10.70;99.90
6863;DHT22;3470;48.738;9.616;2023-05-10T23:13:08;10.70;99.90
6863;DHT22;3470;48.738;9.616;2023-05-10T23:15:34;10.70;99.90
6863;DHT22;3470;48.738;9.616;2023-05-10T23:18:01;10.60;99.90
6863;DHT22;3470;48.738;9.616;2023-05-10T23:20:27;10.60;99.90
6863;DHT22;3470;48.738;9.616;2023-05-10T23:22:53;10.60;99.90
6863;DHT22;3470;48.738;9.616;2023-05-10T23:25:22;10.60;99.90
6863;DHT22;3470;48.738;9.616;2023-05-10T23:27:47;10.60;99.90
6863;DHT22;3470;48.738;9.616;2023-05-10T23:30:13;10.50;99.90
6863;DHT22;3470;48.738;9.616;2023-05-10T23:32:38;10.50;99.90
6863;DHT22;3470;48.738;9.616;2023-05-10T23:35:04;10.50;99.90
